sensor_id;sensor_type;location;lat;lon;timestamp;pressure;altitude;pressure_sealevel;temperature;humidity
53246;BME280;39569;51.090;-1.786;2023-03-19T00:01:02;100446.28;;;16.61;53.91
53246;BME280;39569;51.090;-1.786;2023-03-19T00:03:30;100460.63;;;16.24;54.72
53246;BME280;39569;51.090;-1.786;2023-03-19T00:05:56;100442.13;;;16.59;53.93
53246;BME280;39569;51.090;-1.786;2023-03-19T00:08:24;100451.22;;;16.89;53.42
53246;BME280;39569;51.090;-1.786;2023-03-19T00:10:51;100451.09;;;16.78;53.78
53246;BME280;39569;51.090;-1.786;2023-03-19T00:13:18;100456.59;;;16.89;53.54
53246;BME280;39569;51.090;-1.786;2023-03-19T00:15:45;100446.44;;;16.91;53.21
53246;BME280;39569;51.090;-1.786;2023-03-19T00:18:12;100453.28;;;17.12;53.06
53246;BME280;39569;51.090;-1.786;2023-03-19T00:20:39;100462.75;;;16.96;53.28
53246;BME280;39569;51.090;-1.786;2023-03-19T00:23:06;100458.28;;;16.34;54.68
53246;BME280;39569;51.090;-1.786;2023-03-19T00:25:34;100461.91;;;16.46;54.33
53246;BME280;39569;51.090;-1.786;2023-03-19T00:28:01;100463.41;;;16.42;54.10
53246;BME280;39569;51.090;-1.786;2023-03-19T00:30:28;100465.69;;;16.39;53.95
53246;BME280;39569;51.090;-1.786;2023-03-19T00:32:55;100464.84;;;16.14;54.63
53246;BME280;39569;51.090;-1.786;2023-03-19T00:35:21;100470.84;;;16.47;53.62
53246;BME280;39569;51.090;-1.786;2023-03-19T00:37:48;100476.59;;;16.57;53.30
53246;BME280;39569;51.090;-1.786;2023-03-19T00:40:15;100488.63;;;17.04;51.88
53246;BME280;39569;51.090;-1.786;2023-03-19T00:42:43;100491.84;;;16.69;53.16
53246;BME280;39569;51.090;-1.786;2023-03-19T00:45:10;100496.53;;;16.56;53.36
53246;BME280;39569;51.090;-1.786;2023-03-19T00:47:38;100503.13;;;16.60;52.63
53246;BME280;39569;51.090;-1.786;2023-03-19T00:50:05;100496.03;;;16.34;53.29
53246;BME280;39569;51.090;-1.786;2023-03-19T00:52:32;100506.19;;;16.32;53.16
53246;BME280;39569;51.090;-1.786;2023-03-19T00:54:59;100504.50;;;16.38;53.16
53246;BME280;39569;51.090;-1.786;2023-03-19T00:57:26;100512.63;;;15.94;53.98
53246;BME280;39569;51.090;-1.786;2023-03-19T00:59:54;100523.84;;;16.22;53.90
53246;BME280;39569;51.090;-1.786;2023-03-19T01:02:20;100524.69;;;16.60;52.77
53246;BME280;39569;51.090;-1.786;2023-03-19T01:04:48;100530.56;;;16.50;53.22
53246;BME280;39569;51.090;-1.786;2023-03-19T01:07:14;100530.78;;;16.49;53.10
53246;BME280;39569;51.090;-1.786;2023-03-19T01:09:41;100540.63;;;16.30;52.96
53246;BME280;39569;51.090;-1.786;2023-03-19T01:12:08;100538.38;;;15.77;53.59
53246;BME280;39569;51.090;-1.786;2023-03-19T01:14:35;100544.38;;;15.79;53.98
53246;BME280;39569;51.090;-1.786;2023-03-19T01:17:03;100546.63;;;15.88;54.03
53246;BME280;39569;51.090;-1.786;2023-03-19T01:19:31;100548.06;;;15.91;53.44
53246;BME280;39569;51.090;-1.786;2023-03-19T01:21:57;100558.59;;;15.99;53.33
53246;BME280;39569;51.090;-1.786;2023-03-19T01:24:28;100556.88;;;15.53;53.90
53246;BME280;39569;51.090;-1.786;2023-03-19T01:26:55;100561.63;;;15.38;54.07
53246;BME280;39569;51.090;-1.786;2023-03-19T01:29:21;100563.13;;;15.21;54.90
53246;BME280;39569;51.090;-1.786;2023-03-19T01:31:48;100563.50;;;15.38;54.66
53246;BME280;39569;51.090;-1.786;2023-03-19T01:34:16;100577.13;;;15.62;54.21
53246;BME280;39569;51.090;-1.786;2023-03-19T01:36:43;100582.75;;;15.35;55.00
53246;BME280;39569;51.090;-1.786;2023-03-19T01:39:11;100576.16;;;15.50;54.80
53246;BME280;39569;51.090;-1.786;2023-03-19T01:41:38;100581.09;;;15.34;55.31
53246;BME280;39569;51.090;-1.786;2023-03-19T01:44:23;100584.66;;;15.47;55.27
53246;BME280;39569;51.090;-1.786;2023-03-19T01:46:50;100585.88;;;15.06;55.88
53246;BME280;39569;51.090;-1.786;2023-03-19T01:49:20;100591.88;;;15.14;56.42
53246;BME280;39569;51.090;-1.786;2023-03-19T01:51:48;100596.66;;;15.25;56.61
53246;BME280;39569;51.090;-1.786;2023-03-19T01:54:17;100598.09;;;15.47;56.31
53246;BME280;39569;51.090;-1.786;2023-03-19T01:56:47;100602.38;;;15.88;55.18
53246;BME280;39569;51.090;-1.786;2023-03-19T01:59:19;100609.97;;;16.10;54.38
53246;BME280;39569;51.090;-1.786;2023-03-19T02:01:51;100610.81;;;15.98;54.61
53246;BME280;39569;51.090;-1.786;2023-03-19T02:04:21;100609.13;;;16.03;54.45
53246;BME280;39569;51.090;-1.786;2023-03-19T02:06:49;100604.25;;;15.81;55.16
53246;BME280;39569;51.090;-1.786;2023-03-19T02:09:17;100591.84;;;15.73;54.88
53246;BME280;39569;51.090;-1.786;2023-03-19T02:11:44;100594.09;;;15.83;54.43
53246;BME280;39569;51.090;-1.786;2023-03-19T02:14:11;100591.19;;;15.77;54.22
53246;BME280;39569;51.090;-1.786;2023-03-19T02:16:38;100587.31;;;15.60;53.90
53246;BME280;39569;51.090;-1.786;2023-03-19T02:19:09;100592.28;;;15.63;53.78
53246;BME280;39569;51.090;-1.786;2023-03-19T02:21:40;100594.78;;;15.32;53.97
53246;BME280;39569;51.090;-1.786;2023-03-19T02:24:11;100590.84;;;15.09;54.52
53246;BME280;39569;51.090;-1.786;2023-03-19T02:26:40;100595.16;;;14.84;54.63
53246;BME280;39569;51.090;-1.786;2023-03-19T02:29:07;100590.53;;;14.51;55.50
53246;BME280;39569;51.090;-1.786;2023-03-19T02:31:34;100586.84;;;14.52;55.16
53246;BME280;39569;51.090;-1.786;2023-03-19T02:34:04;100592.81;;;14.41;55.36
53246;BME280;39569;51.090;-1.786;2023-03-19T02:36:34;100594.66;;;14.41;55.58
53246;BME280;39569;51.090;-1.786;2023-03-19T02:39:03;100586.69;;;14.13;56.15
53246;BME280;39569;51.090;-1.786;2023-03-19T02:41:32;100592.41;;;14.04;55.86
53246;BME280;39569;51.090;-1.786;2023-03-19T02:44:02;100591.63;;;14.10;55.64
53246;BME280;39569;51.090;-1.786;2023-03-19T02:46:29;100591.63;;;13.69;56.72
53246;BME280;39569;51.090;-1.786;2023-03-19T02:48:57;100585.22;;;13.36;57.56
53246;BME280;39569;51.090;-1.786;2023-03-19T02:51:24;100585.59;;;13.60;56.84
53246;BME280;39569;51.090;-1.786;2023-03-19T02:53:50;100580.75;;;13.83;55.42
53246;BME280;39569;51.090;-1.786;2023-03-19T02:56:17;100585.69;;;13.73;55.37
53246;BME280;39569;51.090;-1.786;2023-03-19T02:58:44;100586.75;;;13.51;55.15
53246;BME280;39569;51.090;-1.786;2023-03-19T03:01:12;100587.47;;;13.32;55.33
53246;BME280;39569;51.090;-1.786;2023-03-19T03:03:38;100601.63;;;13.20;56.11
53246;BME280;39569;51.090;-1.786;2023-03-19T03:06:06;100612.78;;;13.23;55.36
53246;BME280;39569;51.090;-1.786;2023-03-19T03:08:32;100618.31;;;13.22;55.32
53246;BME280;39569;51.090;-1.786;2023-03-19T03:11:00;100628.72;;;13.31;54.72
53246;BME280;39569;51.090;-1.786;2023-03-19T03:13:27;100631.03;;;13.34;54.50
53246;BME280;39569;51.090;-1.786;2023-03-19T03:15:54;100629.72;;;13.03;55.13
53246;BME280;39569;51.090;-1.786;2023-03-19T03:18:22;100631.94;;;13.20;54.87
53246;BME280;39569;51.090;-1.786;2023-03-19T03:20:49;100632.75;;;13.21;54.42
53246;BME280;39569;51.090;-1.786;2023-03-19T03:23:16;100644.06;;;13.16;54.29
53246;BME280;39569;51.090;-1.786;2023-03-19T03:25:43;100646.31;;;13.13;53.67
53246;BME280;39569;51.090;-1.786;2023-03-19T03:28:10;100650.59;;;13.07;53.82
53246;BME280;39569;51.090;-1.786;2023-03-19T03:30:36;100648.53;;;12.88;54.46
53246;BME280;39569;51.090;-1.786;2023-03-19T03:33:03;100652.66;;;12.69;54.41
53246;BME280;39569;51.090;-1.786;2023-03-19T03:35:32;100661.16;;;12.73;54.86
53246;BME280;39569;51.090;-1.786;2023-03-19T03:37:59;100669.03;;;12.60;54.33
53246;BME280;39569;51.090;-1.786;2023-03-19T03:40:27;100664.16;;;12.49;54.31
53246;BME280;39569;51.090;-1.786;2023-03-19T03:42:54;100668.47;;;12.29;54.78
53246;BME280;39569;51.090;-1.786;2023-03-19T03:45:21;100676.91;;;12.47;54.86
53246;BME280;39569;51.090;-1.786;2023-03-19T03:47:47;100670.81;;;12.53;54.37
53246;BME280;39569;51.090;-1.786;2023-03-19T03:50:15;100675.03;;;12.62;54.25
53246;BME280;39569;51.090;-1.786;2023-03-19T03:52:43;100681.41;;;12.61;54.63
53246;BME280;39569;51.090;-1.786;2023-03-19T03:55:10;100683.81;;;12.56;53.93
53246;BME280;39569;51.090;-1.786;2023-03-19T03:57:37;100691.41;;;12.52;54.07
53246;BME280;39569;51.090;-1.786;2023-03-19T04:00:04;100692.53;;;12.43;54.20
53246;BME280;39569;51.090;-1.786;2023-03-19T04:02:31;100701.78;;;12.26;54.13
53246;BME280;39569;51.090;-1.786;2023-03-19T04:04:57;100699.50;;;12.23;54.44
53246;BME280;39569;51.090;-1.786;2023-03-19T04:07:25;100691.53;;;11.86;55.43
53246;BME280;39569;51.090;-1.786;2023-03-19T04:09:53;100702.53;;;11.91;55.70
53246;BME280;39569;51.090;-1.786;2023-03-19T04:12:22;100708.59;;;11.85;55.96
53246;BME280;39569;51.090;-1.786;2023-03-19T04:14:49;100702.25;;;11.86;55.97
53246;BME280;39569;51.090;-1.786;2023-03-19T04:17:16;100702.78;;;11.96;55.25
53246;BME280;39569;51.090;-1.786;2023-03-19T04:19:43;100720.72;;;11.96;55.41
53246;BME280;39569;51.090;-1.786;2023-03-19T04:22:09;100719.88;;;11.80;55.75
53246;BME280;39569;51.090;-1.786;2023-03-19T04:24:36;100719.41;;;11.77;56.02
53246;BME280;39569;51.090;-1.786;2023-03-19T04:27:05;100718.50;;;11.84;56.22
53246;BME280;39569;51.090;-1.786;2023-03-19T04:29:32;100724.78;;;11.92;55.55
53246;BME280;39569;51.090;-1.786;2023-03-19T04:31:59;100728.75;;;11.58;56.17
53246;BME280;39569;51.090;-1.786;2023-03-19T04:34:26;100728.38;;;11.61;55.99
53246;BME280;39569;51.090;-1.786;2023-03-19T04:36:52;100738.50;;;11.88;55.31
53246;BME280;39569;51.090;-1.786;2023-03-19T04:39:19;100750.69;;;11.76;55.67
53246;BME280;39569;51.090;-1.786;2023-03-19T04:41:46;100743.94;;;11.80;55.38
53246;BME280;39569;51.090;-1.786;2023-03-19T04:44:14;100746.53;;;11.88;55.29
53246;BME280;39569;51.090;-1.786;2023-03-19T04:46:42;100754.84;;;11.79;55.20
53246;BME280;39569;51.090;-1.786;2023-03-19T04:49:10;100759.06;;;11.73;55.77
53246;BME280;39569;51.090;-1.786;2023-03-19T04:51:37;100760.63;;;11.68;56.03
53246;BME280;39569;51.090;-1.786;2023-03-19T04:54:04;100766.34;;;11.79;55.69
53246;BME280;39569;51.090;-1.786;2023-03-19T04:56:31;100758.31;;;11.79;55.74
53246;BME280;39569;51.090;-1.786;2023-03-19T04:58:57;100768.78;;;11.89;55.39
53246;BME280;39569;51.090;-1.786;2023-03-19T05:01:26;100769.25;;;11.93;55.04
53246;BME280;39569;51.090;-1.786;2023-03-19T05:03:52;100771.38;;;11.97;55.24
53246;BME280;39569;51.090;-1.786;2023-03-19T05:06:19;100775.50;;;11.85;55.86
53246;BME280;39569;51.090;-1.786;2023-03-19T05:08:46;100779.88;;;12.01;55.15
53246;BME280;39569;51.090;-1.786;2023-03-19T05:11:13;100784.56;;;11.84;55.33
53246;BME280;39569;51.090;-1.786;2023-03-19T05:13:39;100781.88;;;11.84;55.37
53246;BME280;39569;51.090;-1.786;2023-03-19T05:16:06;100779.72;;;11.79;55.75
53246;BME280;39569;51.090;-1.786;2023-03-19T05:18:35;100785.88;;;11.88;55.33
53246;BME280;39569;51.090;-1.786;2023-03-19T05:21:02;100784.66;;;11.91;55.15
53246;BME280;39569;51.090;-1.786;2023-03-19T05:23:29;100793.72;;;11.67;55.43
53246;BME280;39569;51.090;-1.786;2023-03-19T05:25:57;100794.84;;;11.72;55.81
53246;BME280;39569;51.090;-1.786;2023-03-19T05:28:24;100796.03;;;11.47;56.26
53246;BME280;39569;51.090;-1.786;2023-03-19T05:30:50;100801.06;;;11.42;56.27
53246;BME280;39569;51.090;-1.786;2023-03-19T05:33:17;100809.78;;;11.67;56.14
53246;BME280;39569;51.090;-1.786;2023-03-19T05:35:45;100807.56;;;11.93;55.41
53246;BME280;39569;51.090;-1.786;2023-03-19T05:38:12;100819.09;;;11.94;55.00
53246;BME280;39569;51.090;-1.786;2023-03-19T05:40:39;100808.22;;;11.72;55.40
53246;BME280;39569;51.090;-1.786;2023-03-19T05:43:07;100814.38;;;11.81;55.45
53246;BME280;39569;51.090;-1.786;2023-03-19T05:45:35;100817.63;;;11.68;55.59
53246;BME280;39569;51.090;-1.786;2023-03-19T05:48:02;100818.94;;;11.64;55.65
53246;BME280;39569;51.090;-1.786;2023-03-19T05:50:29;100818.66;;;11.59;55.86
53246;BME280;39569;51.090;-1.786;2023-03-19T05:52:58;100825.59;;;11.76;55.31
53246;BME280;39569;51.090;-1.786;2023-03-19T05:55:25;100829.19;;;11.61;55.00
53246;BME280;39569;51.090;-1.786;2023-03-19T05:57:52;100830.47;;;11.42;55.32
53246;BME280;39569;51.090;-1.786;2023-03-19T06:00:19;100844.09;;;11.55;55.25
53246;BME280;39569;51.090;-1.786;2023-03-19T06:02:46;100840.94;;;11.52;55.10
53246;BME280;39569;51.090;-1.786;2023-03-19T06:05:13;100851.06;;;11.42;55.52
53246;BME280;39569;51.090;-1.786;2023-03-19T06:07:40;100848.16;;;11.21;55.90
53246;BME280;39569;51.090;-1.786;2023-03-19T06:10:10;100844.31;;;11.23;56.50
53246;BME280;39569;51.090;-1.786;2023-03-19T06:12:37;100848.78;;;11.31;56.03
53246;BME280;39569;51.090;-1.786;2023-03-19T06:15:04;100840.94;;;11.29;56.07
53246;BME280;39569;51.090;-1.786;2023-03-19T06:17:31;100847.22;;;11.14;56.49
53246;BME280;39569;51.090;-1.786;2023-03-19T06:19:58;100854.47;;;10.97;56.95
53246;BME280;39569;51.090;-1.786;2023-03-19T06:22:25;100855.88;;;11.16;56.70
53246;BME280;39569;51.090;-1.786;2023-03-19T06:24:52;100862.06;;;11.16;56.92
53246;BME280;39569;51.090;-1.786;2023-03-19T06:27:20;100856.47;;;11.56;56.12
53246;BME280;39569;51.090;-1.786;2023-03-19T06:29:47;100869.25;;;11.46;55.81
53246;BME280;39569;51.090;-1.786;2023-03-19T06:32:13;100874.50;;;11.62;55.60
53246;BME280;39569;51.090;-1.786;2023-03-19T06:34:40;100874.25;;;11.49;56.13
53246;BME280;39569;51.090;-1.786;2023-03-19T06:37:07;100878.50;;;11.66;55.86
53246;BME280;39569;51.090;-1.786;2023-03-19T06:39:34;100889.06;;;11.68;55.50
53246;BME280;39569;51.090;-1.786;2023-03-19T06:42:01;100890.00;;;11.75;54.95
53246;BME280;39569;51.090;-1.786;2023-03-19T06:44:29;100891.84;;;11.97;54.75
53246;BME280;39569;51.090;-1.786;2023-03-19T06:46:55;100893.66;;;11.74;54.68
53246;BME280;39569;51.090;-1.786;2023-03-19T06:49:22;100894.88;;;11.71;54.73
53246;BME280;39569;51.090;-1.786;2023-03-19T06:51:49;100897.38;;;11.73;54.72
53246;BME280;39569;51.090;-1.786;2023-03-19T06:54:16;100903.91;;;11.70;54.88
53246;BME280;39569;51.090;-1.786;2023-03-19T06:56:42;100906.16;;;11.81;54.84
53246;BME280;39569;51.090;-1.786;2023-03-19T06:59:10;100900.53;;;11.99;54.80
53246;BME280;39569;51.090;-1.786;2023-03-19T07:01:39;100912.53;;;12.03;54.48
53246;BME280;39569;51.090;-1.786;2023-03-19T07:04:06;100919.56;;;12.04;54.71
53246;BME280;39569;51.090;-1.786;2023-03-19T07:06:33;100911.53;;;12.04;55.00
53246;BME280;39569;51.090;-1.786;2023-03-19T07:09:00;100914.25;;;12.19;54.38
53246;BME280;39569;51.090;-1.786;2023-03-19T07:11:27;100925.00;;;12.11;54.37
53246;BME280;39569;51.090;-1.786;2023-03-19T07:13:54;100931.81;;;11.99;55.38
53246;BME280;39569;51.090;-1.786;2023-03-19T07:16:21;100932.31;;;12.17;54.33
53246;BME280;39569;51.090;-1.786;2023-03-19T07:18:49;100931.28;;;12.40;54.24
53246;BME280;39569;51.090;-1.786;2023-03-19T07:21:16;100932.41;;;12.46;54.44
53246;BME280;39569;51.090;-1.786;2023-03-19T07:23:42;100930.06;;;12.65;53.99
53246;BME280;39569;51.090;-1.786;2023-03-19T07:26:11;100931.03;;;12.50;54.83
53246;BME280;39569;51.090;-1.786;2023-03-19T07:28:38;100928.44;;;12.42;54.81
53246;BME280;39569;51.090;-1.786;2023-03-19T07:31:04;100936.16;;;12.74;54.14
53246;BME280;39569;51.090;-1.786;2023-03-19T07:33:32;100940.25;;;12.33;54.81
53246;BME280;39569;51.090;-1.786;2023-03-19T07:36:00;100935.75;;;12.48;54.68
53246;BME280;39569;51.090;-1.786;2023-03-19T07:38:27;100938.50;;;12.77;54.20
53246;BME280;39569;51.090;-1.786;2023-03-19T07:40:54;100945.03;;;12.74;54.02
53246;BME280;39569;51.090;-1.786;2023-03-19T07:43:20;100939.94;;;12.79;53.68
53246;BME280;39569;51.090;-1.786;2023-03-19T07:45:47;100951.03;;;12.76;54.18
53246;BME280;39569;51.090;-1.786;2023-03-19T07:48:14;100952.09;;;12.90;54.13
53246;BME280;39569;51.090;-1.786;2023-03-19T07:50:42;100948.88;;;13.24;53.14
53246;BME280;39569;51.090;-1.786;2023-03-19T07:53:10;100948.59;;;13.04;53.35
53246;BME280;39569;51.090;-1.786;2023-03-19T07:55:36;100955.06;;;13.24;53.04
53246;BME280;39569;51.090;-1.786;2023-03-19T07:58:03;100954.34;;;13.30;53.57
53246;BME280;39569;51.090;-1.786;2023-03-19T08:00:30;100958.94;;;13.07;53.92
53246;BME280;39569;51.090;-1.786;2023-03-19T08:02:57;100969.03;;;13.05;53.49
53246;BME280;39569;51.090;-1.786;2023-03-19T08:05:24;100970.25;;;13.17;53.38
53246;BME280;39569;51.090;-1.786;2023-03-19T08:07:51;100970.44;;;13.80;51.65
53246;BME280;39569;51.090;-1.786;2023-03-19T08:10:19;100967.59;;;14.03;51.10
53246;BME280;39569;51.090;-1.786;2023-03-19T08:12:46;100978.50;;;14.02;51.08
53246;BME280;39569;51.090;-1.786;2023-03-19T08:15:13;100971.94;;;13.68;52.21
53246;BME280;39569;51.090;-1.786;2023-03-19T08:17:40;100981.38;;;13.64;52.29
53246;BME280;39569;51.090;-1.786;2023-03-19T08:20:08;100985.50;;;13.81;51.65
53246;BME280;39569;51.090;-1.786;2023-03-19T08:22:36;100991.97;;;14.23;50.92
53246;BME280;39569;51.090;-1.786;2023-03-19T08:25:04;100991.78;;;14.03;51.35
53246;BME280;39569;51.090;-1.786;2023-03-19T08:27:33;100992.00;;;14.44;50.47
53246;BME280;39569;51.090;-1.786;2023-03-19T08:30:00;100992.78;;;14.38;50.00
53246;BME280;39569;51.090;-1.786;2023-03-19T08:32:28;100998.28;;;14.15;50.19
53246;BME280;39569;51.090;-1.786;2023-03-19T08:34:55;101000.00;;;14.02;50.38
53246;BME280;39569;51.090;-1.786;2023-03-19T08:37:21;101001.19;;;14.56;49.62
53246;BME280;39569;51.090;-1.786;2023-03-19T08:39:49;101002.09;;;14.91;48.82
53246;BME280;39569;51.090;-1.786;2023-03-19T08:42:16;101006.13;;;14.52;47.88
53246;BME280;39569;51.090;-1.786;2023-03-19T08:44:44;101007.13;;;15.62;46.13
53246;BME280;39569;51.090;-1.786;2023-03-19T08:47:11;101014.75;;;15.24;46.00
53246;BME280;39569;51.090;-1.786;2023-03-19T08:49:38;101012.22;;;15.85;45.63
53246;BME280;39569;51.090;-1.786;2023-03-19T08:52:06;101014.56;;;16.14;44.23
53246;BME280;39569;51.090;-1.786;2023-03-19T08:54:32;101021.31;;;16.83;43.20
53246;BME280;39569;51.090;-1.786;2023-03-19T08:56:59;101006.56;;;20.33;36.57
53246;BME280;39569;51.090;-1.786;2023-03-19T08:59:26;100997.25;;;22.03;34.28
53246;BME280;39569;51.090;-1.786;2023-03-19T09:01:55;100998.47;;;22.40;31.66
53246;BME280;39569;51.090;-1.786;2023-03-19T09:04:22;100999.44;;;22.17;31.76
53246;BME280;39569;51.090;-1.786;2023-03-19T09:06:49;101003.88;;;24.48;28.80
53246;BME280;39569;51.090;-1.786;2023-03-19T09:09:16;101015.13;;;22.88;30.75
53246;BME280;39569;51.090;-1.786;2023-03-19T09:11:44;101018.47;;;20.62;33.75
53246;BME280;39569;51.090;-1.786;2023-03-19T09:14:11;101026.69;;;21.08;33.49
53246;BME280;39569;51.090;-1.786;2023-03-19T09:16:38;101020.50;;;22.55;32.61
53246;BME280;39569;51.090;-1.786;2023-03-19T09:19:06;101023.53;;;21.97;33.18
53246;BME280;39569;51.090;-1.786;2023-03-19T09:21:33;101026.00;;;21.76;33.49
53246;BME280;39569;51.090;-1.786;2023-03-19T09:24:00;101021.69;;;21.63;34.24
53246;BME280;39569;51.090;-1.786;2023-03-19T09:26:27;101038.13;;;19.80;34.69
53246;BME280;39569;51.090;-1.786;2023-03-19T09:28:54;101043.25;;;19.70;35.84
53246;BME280;39569;51.090;-1.786;2023-03-19T09:31:22;101050.25;;;19.17;36.88
53246;BME280;39569;51.090;-1.786;2023-03-19T09:33:48;101042.63;;;20.04;36.77
53246;BME280;39569;51.090;-1.786;2023-03-19T09:36:16;101056.09;;;20.59;35.19
53246;BME280;39569;51.090;-1.786;2023-03-19T09:38:43;101056.00;;;20.35;35.63
53246;BME280;39569;51.090;-1.786;2023-03-19T09:41:16;101061.75;;;19.55;36.57
53246;BME280;39569;51.090;-1.786;2023-03-19T09:43:58;101067.03;;;19.50;35.93
53246;BME280;39569;51.090;-1.786;2023-03-19T09:46:31;101050.31;;;21.42;33.53
53246;BME280;39569;51.090;-1.786;2023-03-19T09:49:03;101048.97;;;21.91;33.06
53246;BME280;39569;51.090;-1.786;2023-03-19T09:51:38;101051.22;;;21.71;33.78
53246;BME280;39569;51.090;-1.786;2023-03-19T09:54:18;101063.44;;;21.22;33.97
53246;BME280;39569;51.090;-1.786;2023-03-19T09:56:48;101058.47;;;21.42;33.21
53246;BME280;39569;51.090;-1.786;2023-03-19T09:59:15;101061.38;;;21.87;33.06
53246;BME280;39569;51.090;-1.786;2023-03-19T10:01:47;101062.13;;;22.11;31.61
53246;BME280;39569;51.090;-1.786;2023-03-19T10:04:38;101057.06;;;23.04;31.28
53246;BME280;39569;51.090;-1.786;2023-03-19T10:07:17;101059.91;;;24.50;30.03
53246;BME280;39569;51.090;-1.786;2023-03-19T10:09:56;101064.59;;;23.68;30.57
53246;BME280;39569;51.090;-1.786;2023-03-19T10:12:38;101078.81;;;22.42;31.62
53246;BME280;39569;51.090;-1.786;2023-03-19T10:15:19;101068.84;;;21.92;32.99
53246;BME280;39569;51.090;-1.786;2023-03-19T10:17:53;101072.53;;;21.51;32.95
53246;BME280;39569;51.090;-1.786;2023-03-19T10:20:28;101068.84;;;21.92;32.13
53246;BME280;39569;51.090;-1.786;2023-03-19T10:23:01;101069.88;;;21.91;32.46
53246;BME280;39569;51.090;-1.786;2023-03-19T10:25:31;101066.13;;;21.92;32.81
53246;BME280;39569;51.090;-1.786;2023-03-19T10:28:15;101077.84;;;21.46;33.81
53246;BME280;39569;51.090;-1.786;2023-03-19T10:30:46;101078.44;;;21.48;34.34
53246;BME280;39569;51.090;-1.786;2023-03-19T10:33:21;101071.50;;;22.03;33.53
53246;BME280;39569;51.090;-1.786;2023-03-19T10:35:56;101058.63;;;24.09;31.30
53246;BME280;39569;51.090;-1.786;2023-03-19T10:38:25;101049.66;;;26.29;29.81
53246;BME280;39569;51.090;-1.786;2023-03-19T10:41:19;101052.44;;;27.75;27.30
53246;BME280;39569;51.090;-1.786;2023-03-19T10:43:50;101051.34;;;27.71;26.18
53246;BME280;39569;51.090;-1.786;2023-03-19T10:46:18;101056.28;;;26.43;26.56
53246;BME280;39569;51.090;-1.786;2023-03-19T10:48:46;101059.44;;;25.21;27.62
53246;BME280;39569;51.090;-1.786;2023-03-19T10:51:14;101057.56;;;24.90;28.10
53246;BME280;39569;51.090;-1.786;2023-03-19T10:53:43;101047.78;;;28.78;25.53
53246;BME280;39569;51.090;-1.786;2023-03-19T10:56:17;101058.31;;;24.81;28.31
53246;BME280;39569;51.090;-1.786;2023-03-19T10:58:58;101078.00;;;22.70;30.61
53246;BME280;39569;51.090;-1.786;2023-03-19T11:01:27;101078.19;;;22.64;31.16
53246;BME280;39569;51.090;-1.786;2023-03-19T11:03:57;101077.69;;;24.53;29.40
53246;BME280;39569;51.090;-1.786;2023-03-19T11:06:26;101060.91;;;27.93;24.87
53246;BME280;39569;51.090;-1.786;2023-03-19T11:08:58;101059.38;;;25.95;26.89
53246;BME280;39569;51.090;-1.786;2023-03-19T11:11:32;101067.25;;;23.08;28.57
53246;BME280;39569;51.090;-1.786;2023-03-19T11:14:06;101073.22;;;21.81;33.06
53246;BME280;39569;51.090;-1.786;2023-03-19T11:16:49;101081.03;;;21.08;32.95
53246;BME280;39569;51.090;-1.786;2023-03-19T11:19:20;101079.97;;;21.67;33.73
53246;BME280;39569;51.090;-1.786;2023-03-19T11:22:00;101060.94;;;25.81;27.97
53246;BME280;39569;51.090;-1.786;2023-03-19T11:24:32;101075.31;;;23.91;30.35
53246;BME280;39569;51.090;-1.786;2023-03-19T11:26:59;101084.41;;;23.09;30.00
53246;BME280;39569;51.090;-1.786;2023-03-19T11:29:28;101080.72;;;22.42;30.50
53246;BME280;39569;51.090;-1.786;2023-03-19T11:32:03;101085.88;;;22.27;32.33
53246;BME280;39569;51.090;-1.786;2023-03-19T11:34:40;101091.75;;;21.03;33.95
53246;BME280;39569;51.090;-1.786;2023-03-19T11:37:16;101090.97;;;20.07;34.93
53246;BME280;39569;51.090;-1.786;2023-03-19T11:39:57;101092.59;;;20.74;34.66
53246;BME280;39569;51.090;-1.786;2023-03-19T11:42:40;101102.03;;;20.72;34.33
53246;BME280;39569;51.090;-1.786;2023-03-19T11:45:17;101100.03;;;21.20;33.57
53246;BME280;39569;51.090;-1.786;2023-03-19T11:47:53;101088.44;;;24.16;30.50
53246;BME280;39569;51.090;-1.786;2023-03-19T11:50:25;101095.28;;;23.97;29.72
53246;BME280;39569;51.090;-1.786;2023-03-19T11:53:04;101093.03;;;23.34;30.81
53246;BME280;39569;51.090;-1.786;2023-03-19T11:55:40;101096.78;;;22.27;31.60
53246;BME280;39569;51.090;-1.786;2023-03-19T11:58:20;101103.22;;;21.98;31.73
53246;BME280;39569;51.090;-1.786;2023-03-19T12:00:54;101101.59;;;21.85;32.33
53246;BME280;39569;51.090;-1.786;2023-03-19T12:03:55;101101.22;;;21.24;34.10
53246;BME280;39569;51.090;-1.786;2023-03-19T12:06:32;101099.47;;;21.87;33.67
53246;BME280;39569;51.090;-1.786;2023-03-19T12:09:04;101090.47;;;21.64;33.83
53246;BME280;39569;51.090;-1.786;2023-03-19T12:11:42;101087.88;;;21.92;32.51
53246;BME280;39569;51.090;-1.786;2023-03-19T12:14:23;101097.50;;;20.95;33.45
53246;BME280;39569;51.090;-1.786;2023-03-19T12:16:59;101095.50;;;20.13;34.05
53246;BME280;39569;51.090;-1.786;2023-03-19T12:20:02;101094.09;;;20.29;33.84
53246;BME280;39569;51.090;-1.786;2023-03-19T12:22:43;101083.66;;;21.38;32.86
53246;BME280;39569;51.090;-1.786;2023-03-19T12:25:26;101090.38;;;20.83;35.00
53246;BME280;39569;51.090;-1.786;2023-03-19T12:28:02;101088.97;;;20.80;34.17
53246;BME280;39569;51.090;-1.786;2023-03-19T12:30:37;101087.75;;;21.29;32.72
53246;BME280;39569;51.090;-1.786;2023-03-19T12:33:10;101090.63;;;20.22;33.65
53246;BME280;39569;51.090;-1.786;2023-03-19T12:35:40;101087.66;;;20.71;34.44
53246;BME280;39569;51.090;-1.786;2023-03-19T12:38:10;101077.75;;;20.77;34.02
53246;BME280;39569;51.090;-1.786;2023-03-19T12:40:41;101084.94;;;20.71;33.72
53246;BME280;39569;51.090;-1.786;2023-03-19T12:43:16;101096.88;;;20.82;34.26
53246;BME280;39569;51.090;-1.786;2023-03-19T12:45:45;101089.88;;;21.04;33.83
53246;BME280;39569;51.090;-1.786;2023-03-19T12:48:16;101087.91;;;20.93;34.24
53246;BME280;39569;51.090;-1.786;2023-03-19T12:50:47;101084.59;;;19.84;35.37